createdAt,value
2023-01-21T00:02:15.470Z,5.29
2023-01-21T00:07:18.236Z,4.88
2023-01-21T00:12:20.836Z,3.52
2023-01-21T00:17:23.446Z,4.83
2023-01-21T00:22:29.302Z,5.54
2023-01-21T00:27:32.021Z,3.69
2023-01-21T00:32:34.689Z,4.28
2023-01-21T00:37:37.320Z,5.11
2023-01-21T00:42:42.444Z,4.28
2023-01-21T00:47:45.296Z,3.13
2023-01-21T00:52:47.970Z,4.72
2023-01-21T00:57:52.995Z,5.24
2023-01-21T01:02:55.729Z,3.23
2023-01-21T01:07:58.493Z,3.81
2023-01-21T01:13:01.502Z,5.14
2023-01-21T01:18:04.204Z,4.54
2023-01-21T01:23:10.238Z,3.07
2023-01-21T01:28:13.175Z,4.77
2023-01-21T01:33:15.861Z,4.94
2023-01-21T01:38:20.744Z,3.16
2023-01-21T01:43:26.178Z,4.31
2023-01-21T01:48:31.840Z,5.35
2023-01-21T01:53:37.232Z,4.63
2023-01-21T01:58:40.148Z,3.54
2023-01-21T02:03:50.568Z,5.05
2023-01-21T02:08:53.803Z,4.86
2023-01-21T02:13:59.688Z,3.20
2023-01-21T02:19:25.370Z,4.14
2023-01-21T02:24:41.375Z,4.92
2023-01-21T02:29:47.083Z,4.99
2023-01-21T02:34:57.627Z,3.07
2023-01-21T02:40:10.268Z,3.86
2023-01-21T02:45:24.128Z,4.96
2023-01-21T02:50:31.194Z,3.83
2023-01-21T02:55:37.986Z,3.36
2023-01-21T03:01:00.461Z,4.71
2023-01-21T03:06:05.941Z,4.81
2023-01-21T03:11:16.849Z,2.85
2023-01-21T03:16:31.562Z,4.02
2023-01-21T03:21:35.482Z,5.16
2023-01-21T03:26:42.999Z,3.39
2023-01-21T03:31:50.648Z,3.45
2023-01-21T03:37:03.741Z,4.83
2023-01-21T03:42:09.063Z,4.44
2023-01-21T03:47:16.625Z,3.07
2023-01-21T03:52:22.842Z,4.44
2023-01-21T03:57:25.520Z,5.01
2023-01-21T04:02:28.230Z,4.15
2023-01-21T04:07:30.954Z,3.34
2023-01-21T04:12:33.587Z,4.72
2023-01-21T04:17:38.676Z,5.03
2023-01-21T04:22:41.266Z,3.31
2023-01-21T04:27:43.849Z,3.89
2023-01-21T04:32:46.466Z,4.76
2023-01-21T04:37:49.101Z,5.09
2023-01-21T04:42:51.866Z,3.90
2023-01-21T04:47:54.463Z,3.73
2023-01-21T04:52:57.038Z,4.73
2023-01-21T04:57:59.691Z,4.54
2023-01-21T05:03:02.347Z,3.14
2023-01-21T05:08:05.050Z,4.53
2023-01-21T05:13:07.645Z,4.98
2023-01-21T05:18:10.266Z,3.71
2023-01-21T05:23:12.855Z,4.75
2023-01-21T05:28:15.446Z,4.65
2023-01-21T05:33:18.101Z,3.64
2023-01-21T05:38:20.717Z,4.86
2023-01-21T05:43:55.692Z,5.23
2023-01-21T05:48:58.291Z,5.11
2023-01-21T05:54:00.909Z,3.58
2023-01-21T05:59:03.616Z,5.07
2023-01-21T06:04:06.272Z,5.62
2023-01-21T06:09:09.078Z,3.73
2023-01-21T06:14:12.397Z,4.40
2023-01-21T06:19:15.059Z,5.22
2023-01-21T06:24:17.723Z,5.73
2023-01-21T06:29:20.584Z,4.03
2023-01-21T06:34:23.169Z,5.01
2023-01-21T06:39:28.224Z,5.69
2023-01-21T06:44:30.826Z,5.98
2023-01-21T06:49:33.434Z,6.23
2023-01-21T06:54:36.091Z,4.44
2023-01-21T06:59:38.693Z,4.73
2023-01-21T07:04:41.371Z,5.71
2023-01-21T07:09:44.294Z,5.95
2023-01-21T07:14:46.941Z,5.99
2023-01-21T07:19:49.591Z,5.77
2023-01-21T07:24:52.189Z,6.31
2023-01-21T07:29:54.803Z,6.28
2023-01-21T07:34:57.441Z,6.07
2023-01-21T07:40:02.274Z,5.89
2023-01-21T07:45:05.329Z,5.64
2023-01-21T07:50:08.955Z,6.26
2023-01-21T07:55:12.729Z,5.79
2023-01-21T08:00:18.388Z,6.68
2023-01-21T08:05:22.151Z,5.26
2023-01-21T08:10:25.021Z,6.27
2023-01-21T08:15:27.612Z,6.01
2023-01-21T08:20:30.255Z,6.58
2023-01-21T08:25:33.149Z,6.81
2023-01-21T08:30:36.077Z,6.68
2023-01-21T08:35:38.721Z,5.62
2023-01-21T08:40:41.333Z,5.70
2023-01-21T08:45:46.214Z,6.21
2023-01-21T08:50:48.856Z,6.89
2023-01-21T08:55:51.505Z,5.54
2023-01-21T09:00:54.423Z,6.14
2023-01-21T09:06:01.061Z,6.49
2023-01-21T09:11:06.662Z,6.61
2023-01-21T09:16:12.137Z,6.56
2023-01-21T09:21:15.960Z,7.02
2023-01-21T09:26:20.766Z,6.00
2023-01-21T09:31:25.814Z,7.08
2023-01-21T09:36:31.187Z,7.15
2023-01-21T09:41:35.905Z,5.75
2023-01-21T09:46:41.416Z,6.84
2023-01-21T09:51:52.768Z,6.77
2023-01-21T09:57:15.329Z,7.43
2023-01-21T10:02:26.463Z,6.27
2023-01-21T10:07:36.342Z,7.25
2023-01-21T10:12:53.888Z,6.45
2023-01-21T10:17:59.390Z,6.27
2023-01-21T10:23:10.643Z,7.46
2023-01-21T10:28:20.827Z,6.10
2023-01-21T10:33:26.458Z,6.72
2023-01-21T10:38:37.071Z,7.25
2023-01-21T10:44:02.454Z,5.91
2023-01-21T10:49:07.010Z,6.77
2023-01-21T10:54:17.051Z,6.06
2023-01-21T10:59:24.547Z,7.03
2023-01-21T11:04:28.190Z,5.66
2023-01-21T11:09:35.340Z,7.05
2023-01-21T11:14:38.019Z,6.26
2023-01-21T11:19:57.290Z,7.36
2023-01-21T11:25:00.928Z,5.71
2023-01-21T11:30:19.566Z,7.16
2023-01-21T11:35:28.399Z,5.82
2023-01-21T11:40:31.259Z,6.30
2023-01-21T11:45:37.883Z,7.13
2023-01-21T11:50:42.792Z,5.91
2023-01-21T11:55:50.396Z,7.33
2023-01-21T12:00:56.532Z,5.66
2023-01-21T12:06:00.353Z,6.64
2023-01-21T12:11:05.630Z,6.45
2023-01-21T12:16:13.118Z,7.21
2023-01-21T12:21:21.645Z,5.94
2023-01-21T12:26:27.106Z,6.86
2023-01-21T12:31:36.702Z,7.33
2023-01-21T12:36:50.965Z,5.64
2023-01-21T12:42:16.943Z,7.20
2023-01-21T12:47:22.546Z,6.70
2023-01-21T12:52:34.817Z,6.12
2023-01-21T12:57:41.764Z,7.12
2023-01-21T13:02:50.201Z,5.55
2023-01-21T13:08:00.404Z,6.94
2023-01-21T13:13:16.376Z,5.62
2023-01-21T13:18:26.014Z,6.76
2023-01-21T13:23:36.303Z,5.75
2023-01-21T13:28:45.186Z,7.08
2023-01-21T13:33:49.919Z,6.14
2023-01-21T13:39:20.443Z,6.59
2023-01-21T13:44:25.920Z,6.45
2023-01-21T13:49:31.499Z,6.20
2023-01-21T13:54:45.120Z,7.15
2023-01-21T13:59:57.610Z,7.25
2023-01-21T14:05:04.992Z,5.81
2023-01-21T14:10:14.369Z,7.04
2023-01-21T14:15:18.255Z,5.71
2023-01-21T14:20:21.953Z,6.97
2023-01-21T14:25:24.543Z,5.95
2023-01-21T14:30:37.106Z,6.47
2023-01-21T14:35:47.917Z,6.60
2023-01-21T14:41:02.840Z,7.54
2023-01-21T14:46:11.251Z,6.11
2023-01-21T14:51:21.372Z,6.85
2023-01-21T14:56:31.650Z,6.85
2023-01-21T15:01:34.417Z,6.17
2023-01-21T15:06:39.898Z,7.44
2023-01-21T15:11:44.140Z,6.54
2023-01-21T15:16:50.044Z,6.09
2023-01-21T15:21:58.470Z,7.34
2023-01-21T15:27:15.609Z,6.27
2023-01-21T15:32:22.971Z,6.78
2023-01-21T15:37:29.637Z,7.24
2023-01-21T15:42:43.906Z,5.73
2023-01-21T15:47:57.007Z,7.09
2023-01-21T15:52:59.547Z,7.37
2023-01-21T15:58:03.125Z,5.56
2023-01-21T16:03:17.412Z,6.28
2023-01-21T16:08:22.839Z,7.45
2023-01-21T16:13:36.800Z,6.24
2023-01-21T16:18:42.245Z,6.66
2023-01-21T16:23:45.473Z,7.45
2023-01-21T16:28:49.666Z,6.24
2023-01-21T16:33:53.579Z,6.19
2023-01-21T16:38:56.729Z,7.19
2023-01-21T16:44:03.941Z,7.36
2023-01-21T16:49:14.766Z,6.94
2023-01-21T16:54:19.356Z,5.35
2023-01-21T16:59:26.098Z,6.69
2023-01-21T17:04:29.141Z,7.54
2023-01-21T17:09:35.459Z,6.91
2023-01-21T17:14:38.194Z,5.46
2023-01-21T17:19:43.085Z,6.96
2023-01-21T17:25:07.567Z,6.24
2023-01-21T17:30:15.938Z,6.16
2023-01-21T17:35:23.006Z,7.08
2023-01-21T17:40:29.769Z,7.50
2023-01-21T17:45:45.648Z,6.07
2023-01-21T17:50:48.561Z,6.09
2023-01-21T17:55:55.375Z,7.36
2023-01-21T18:01:01.223Z,6.27
2023-01-21T18:11:29.218Z,7.06
2023-01-21T18:16:32.106Z,7.37
2023-01-21T18:21:34.699Z,6.79
2023-01-21T18:26:38.244Z,5.23
2023-01-21T18:31:41.005Z,6.74
2023-01-21T18:36:43.857Z,7.37
2023-01-21T18:41:46.742Z,5.68
2023-01-21T18:46:49.430Z,6.15
2023-01-21T18:51:52.082Z,7.15
2023-01-21T18:56:54.776Z,6.46
2023-01-21T19:01:57.515Z,5.62
2023-01-21T19:07:00.118Z,6.85
2023-01-21T19:12:02.702Z,7.38
2023-01-21T19:17:05.879Z,5.96
2023-01-21T19:22:13.888Z,5.73
2023-01-21T19:27:22.751Z,7.04
2023-01-21T19:32:25.426Z,7.27
2023-01-21T19:37:28.043Z,5.34
2023-01-21T19:42:33.082Z,5.95
2023-01-21T19:47:38.076Z,7.20
2023-01-21T19:52:40.651Z,7.04
2023-01-21T19:57:45.480Z,5.47
2023-01-21T20:02:48.342Z,6.55
2023-01-21T20:07:51.251Z,7.26
2023-01-21T20:12:54.622Z,5.75
2023-01-21T20:18:01.303Z,6.04
2023-01-21T20:23:04.078Z,7.00
2023-01-21T20:28:14.839Z,7.03
2023-01-21T20:33:20.465Z,5.50
2023-01-21T20:38:28.233Z,6.63
2023-01-21T20:43:31.216Z,7.25
2023-01-21T20:48:36.675Z,6.54
2023-01-21T20:53:39.583Z,5.01
2023-01-21T20:58:44.816Z,6.40
2023-01-21T21:03:48.087Z,7.28
2023-01-21T21:08:51.452Z,6.05
2023-01-21T21:13:54.063Z,6.16
2023-01-21T21:18:57.062Z,7.18
2023-01-21T21:23:59.660Z,6.85
2023-01-21T21:29:02.655Z,5.47
2023-01-21T21:34:05.214Z,6.76
2023-01-21T21:39:07.910Z,6.83
2023-01-21T21:44:11.252Z,5.13
2023-01-21T21:49:13.874Z,6.36
2023-01-21T21:54:17.649Z,7.22
2023-01-21T21:59:20.329Z,5.77
2023-01-21T22:04:23.534Z,5.78
2023-01-21T22:09:26.704Z,7.14
2023-01-21T22:14:29.316Z,6.78
2023-01-21T22:19:31.987Z,5.34
2023-01-21T22:24:34.573Z,6.67
2023-01-21T22:29:37.182Z,7.26
2023-01-21T22:34:39.796Z,5.85
2023-01-21T22:39:42.368Z,5.82
2023-01-21T22:44:44.932Z,7.07
2023-01-21T22:49:49.124Z,6.51
2023-01-21T22:54:51.890Z,5.09
2023-01-21T22:59:54.621Z,6.47
2023-01-21T23:04:57.273Z,7.10
2023-01-21T23:10:00.003Z,5.22
2023-01-21T23:15:02.593Z,5.87
2023-01-21T23:20:05.993Z,6.96
2023-01-21T23:25:09.156Z,6.97
2023-01-21T23:30:13.645Z,5.16
2023-01-21T23:35:16.390Z,6.24
2023-01-21T23:40:19.507Z,7.03
2023-01-21T23:45:22.253Z,6.41
2023-01-21T23:50:25.077Z,5.21
2023-01-21T23:55:27.681Z,6.46
